Urb Monte Brisas 5, Puerto Rico
Current Conditions -  °F | °C
As of 9:53 AM on Monday 26 Jan 2015 (Local Time) from TJNR Reporting Station
Few Clouds Few Clouds  
Wind Chill: 82°   Ceiling: Unl
Heat Index: 86°   Visibility: 10mi
Dew Point: 71°   Wind: 12mph
Humidity: 69%   Direction: 100°E
Pressure: 30.08"   Gusts: NA
Location:  18.3304°N, 65.6573°W
Report Text: TJNR 261353Z AUTO 10010KT 10SM FEW026 28/22 A3008 RMK AO2 SLP185 T02780217
Loading
Personal Weather Stations






























Interactive Weather Map New forecast layout! Learn more

10-Day Weather Forecast

Advertisements
Track Severe Weather on mobile